createdAt,value
2022-10-28T00:02:22.364Z,99029.06
2022-10-28T00:07:24.196Z,99033.47
2022-10-28T00:12:25.984Z,99030.03
2022-10-28T00:17:27.766Z,99033.47
2022-10-28T00:22:29.695Z,99027.59
2022-10-28T00:27:33.302Z,99032.66
2022-10-28T00:32:35.151Z,99029.22
2022-10-28T00:37:36.960Z,99025.44
2022-10-28T00:42:38.819Z,99017.44
2022-10-28T00:47:56.083Z,99015.44
2022-10-28T00:53:21.663Z,99014.41
2022-10-28T00:58:26.833Z,99010.75
2022-10-28T01:03:28.857Z,99007.38
2022-10-28T01:08:30.710Z,98991.84
2022-10-28T01:13:35.463Z,98997.06
2022-10-28T01:18:54.522Z,98994.63
2022-10-28T01:24:08.416Z,98995.78
2022-10-28T01:29:21.971Z,98992.69
2022-10-28T01:34:47.519Z,98983.09
2022-10-28T01:39:52.059Z,98996.84
2022-10-28T01:45:19.973Z,98991.81
2022-10-28T01:50:47.339Z,98990.69
2022-10-28T01:55:55.279Z,98989.41
2022-10-28T02:00:59.862Z,98987.94
2022-10-28T02:06:05.452Z,98989.91
2022-10-28T02:11:31.650Z,98992.69
2022-10-28T02:16:41.750Z,98985.03
2022-10-28T02:22:10.274Z,98986.03
2022-10-28T02:27:26.937Z,98981.13
2022-10-28T02:32:32.429Z,98983.44
2022-10-28T02:37:38.888Z,98988.84
2022-10-28T02:42:50.766Z,98988.03
2022-10-28T02:48:01.943Z,98973.97
2022-10-28T02:53:16.371Z,98971.53
2022-10-28T02:58:18.719Z,98974.31
2022-10-28T03:03:20.697Z,98980.34
2022-10-28T03:08:24.806Z,98984.59
2022-10-28T03:13:26.632Z,98975.94
2022-10-28T03:18:28.635Z,98973.84
2022-10-28T03:23:30.450Z,98975.81
2022-10-28T03:28:32.372Z,98964.56
2022-10-28T03:33:34.165Z,98962.94
2022-10-28T03:38:35.944Z,98958.03
2022-10-28T03:43:37.945Z,98966.19
2022-10-28T03:48:39.731Z,98961.47
2022-10-28T03:53:41.546Z,98968.00
2022-10-28T03:58:47.374Z,98964.44
2022-10-28T04:03:49.230Z,98968.22
2022-10-28T04:08:50.990Z,98960.06
2022-10-28T04:13:52.978Z,98959.44
2022-10-28T04:18:54.863Z,98965.31
2022-10-28T04:23:56.697Z,98968.25
2022-10-28T04:28:58.482Z,98964.03
2022-10-28T04:34:00.345Z,98970.06
2022-10-28T04:39:02.266Z,98961.56
2022-10-28T04:44:04.293Z,98956.69
2022-10-28T04:49:06.302Z,98957.84
2022-10-28T04:54:08.535Z,98956.22
2022-10-28T04:59:10.345Z,98952.78
2022-10-28T05:04:12.149Z,98945.13
2022-10-28T05:09:14.480Z,98933.06
2022-10-28T05:14:16.469Z,98929.66
2022-10-28T05:19:18.851Z,98921.66
2022-10-28T05:24:20.692Z,98925.25
2022-10-28T05:29:22.608Z,98935.03
2022-10-28T05:34:24.331Z,98937.16
2022-10-28T05:39:26.262Z,98934.72
2022-10-28T05:44:28.074Z,98938.78
2022-10-28T05:49:30.083Z,98943.19
2022-10-28T05:54:31.967Z,98936.69
2022-10-28T05:59:33.901Z,98938.63
2022-10-28T06:04:35.728Z,98940.59
2022-10-28T06:09:37.815Z,98948.44
2022-10-28T06:14:38.159Z,98944.19
2022-10-28T06:19:40.008Z,98948.44
2022-10-28T06:24:41.930Z,98953.63
2022-10-28T06:29:44.200Z,98943.22
2022-10-28T06:34:46.078Z,98949.88
2022-10-28T06:39:51.360Z,98948.91
2022-10-28T06:44:53.348Z,98960.00
2022-10-28T06:49:56.813Z,98961.63
2022-10-28T06:54:58.693Z,98963.91
2022-10-28T07:00:00.670Z,98967.81
2022-10-28T07:05:02.942Z,98973.16
2022-10-28T07:10:07.971Z,98967.59
2022-10-28T07:15:10.613Z,98978.97
2022-10-28T07:20:12.782Z,98980.22
2022-10-28T07:25:14.950Z,98975.13
2022-10-28T07:30:16.905Z,98980.63
2022-10-28T07:35:19.279Z,98985.97
2022-10-28T07:40:23.486Z,98978.91
2022-10-28T07:45:25.766Z,98984.56
2022-10-28T07:50:27.818Z,98989.22
2022-10-28T07:55:29.802Z,98996.31
2022-10-28T08:00:32.331Z,99001.59
2022-10-28T08:05:34.286Z,99003.28
2022-10-28T08:10:36.235Z,99007.22
2022-10-28T08:15:38.394Z,98995.16
2022-10-28T08:20:40.557Z,98993.09
2022-10-28T08:25:52.991Z,98993.81
2022-10-28T08:31:08.230Z,98993.28
2022-10-28T08:36:13.816Z,98991.47
2022-10-28T08:41:49.922Z,98989.31
2022-10-28T08:47:07.766Z,98998.97
2022-10-28T08:52:09.933Z,98999.97
2022-10-28T08:57:19.067Z,98995.53
2022-10-28T09:02:26.241Z,98997.16
2022-10-28T09:07:28.478Z,99002.84
2022-10-28T09:13:02.107Z,98994.56
2022-10-28T09:18:42.194Z,98988.41
2022-10-28T09:23:55.547Z,98983.16
2022-10-28T09:29:16.546Z,98991.56
2022-10-28T09:34:36.427Z,98991.56
2022-10-28T09:39:51.426Z,98991.22
2022-10-28T09:44:59.165Z,98982.16
2022-10-28T09:50:02.280Z,98974.84
2022-10-28T09:55:16.505Z,98974.81
2022-10-28T10:00:19.011Z,98968.06
2022-10-28T10:05:21.459Z,98960.72
2022-10-28T10:10:31.736Z,98962.06
2022-10-28T10:15:39.802Z,98949.53
2022-10-28T10:20:58.717Z,98938.22
2022-10-28T10:26:05.505Z,98942.28
2022-10-28T10:31:21.397Z,98939.03
2022-10-28T10:36:29.171Z,98934.59
2022-10-28T10:41:41.206Z,98930.81
2022-10-28T10:46:43.053Z,98923.94
2022-10-28T10:51:53.356Z,98917.25
2022-10-28T10:57:08.826Z,98901.09
2022-10-28T11:02:32.647Z,98891.75
2022-10-28T11:07:36.649Z,98883.00
2022-10-28T11:12:51.123Z,98883.41
2022-10-28T11:18:11.638Z,98870.72
2022-10-28T11:23:31.643Z,98872.19
2022-10-28T11:28:48.610Z,98861.97
2022-10-28T11:34:05.575Z,98856.00
2022-10-28T11:39:13.067Z,98842.78
2022-10-28T11:44:44.050Z,98838.22
2022-10-28T11:50:18.129Z,98834.22
2022-10-28T11:55:42.789Z,98823.56
2022-10-28T12:00:53.367Z,98828.63
2022-10-28T12:06:10.658Z,98821.38
2022-10-28T12:11:12.440Z,98825.63
2022-10-28T12:16:44.838Z,98820.38
2022-10-28T12:22:02.591Z,98817.97
2022-10-28T12:27:22.691Z,98810.69
2022-10-28T12:32:31.337Z,98806.66
2022-10-28T12:37:50.138Z,98803.63
2022-10-28T12:43:19.739Z,98796.94
2022-10-28T12:48:33.024Z,98796.50
2022-10-28T12:53:39.887Z,98789.81
2022-10-28T12:58:47.791Z,98793.41
2022-10-28T13:03:50.767Z,98785.53
2022-10-28T13:09:37.964Z,98787.94
2022-10-28T13:14:59.477Z,98788.31
2022-10-28T13:20:12.528Z,98786.09
2022-10-28T13:25:39.470Z,98788.31
2022-10-28T13:31:03.697Z,98774.00
2022-10-28T13:36:17.891Z,98775.41
2022-10-28T13:41:48.768Z,98780.28
2022-10-28T13:47:00.053Z,98786.16
2022-10-28T13:52:08.131Z,98789.00
2022-10-28T13:57:14.490Z,98782.31
2022-10-28T14:02:56.357Z,98789.38
2022-10-28T14:08:04.188Z,98795.63
2022-10-28T14:13:21.649Z,98793.16
2022-10-28T14:24:08.134Z,98790.06
2022-10-28T14:29:43.098Z,98788.59
2022-10-28T14:34:46.049Z,98790.56
2022-10-28T14:40:14.418Z,98787.47
2022-10-28T14:45:37.382Z,98787.81
2022-10-28T14:50:49.744Z,98780.69
2022-10-28T14:56:05.539Z,98782.84
2022-10-28T15:01:28.351Z,98783.16
2022-10-28T15:06:34.189Z,98784.13
2022-10-28T15:11:36.350Z,98783.69
2022-10-28T15:16:49.189Z,98775.59
2022-10-28T15:22:10.753Z,98777.78
2022-10-28T15:27:13.922Z,98769.47
2022-10-28T15:32:21.827Z,98773.09
2022-10-28T15:37:30.045Z,98766.63
2022-10-28T15:42:37.635Z,98763.56
2022-10-28T15:47:39.475Z,98767.00
2022-10-28T15:52:48.177Z,98762.50
2022-10-28T15:57:55.259Z,98761.25
2022-10-28T16:03:05.699Z,98756.38
2022-10-28T16:08:41.087Z,98758.38
2022-10-28T16:13:48.635Z,98757.13
2022-10-28T16:18:54.435Z,98768.41
2022-10-28T16:23:56.507Z,98755.50
2022-10-28T16:28:58.397Z,98758.31
2022-10-28T16:34:00.405Z,98761.13
2022-10-28T16:39:02.138Z,98762.31
2022-10-28T16:44:17.516Z,98755.63
2022-10-28T16:49:19.287Z,98760.06
2022-10-28T16:54:21.073Z,98758.81
2022-10-28T16:59:22.978Z,98758.19
2022-10-28T17:04:24.727Z,98758.38
2022-10-28T17:09:26.563Z,98771.84
2022-10-28T17:14:28.350Z,98772.22
2022-10-28T17:19:30.131Z,98773.41
2022-10-28T17:24:31.986Z,98776.84
2022-10-28T17:29:33.805Z,98772.59
2022-10-28T17:34:36.033Z,98772.78
2022-10-28T17:39:38.039Z,98776.59
2022-10-28T17:44:40.020Z,98776.97
2022-10-28T17:49:41.877Z,98774.91
2022-10-28T17:54:43.688Z,98782.13
2022-10-28T17:59:45.877Z,98780.06
2022-10-28T18:04:47.724Z,98779.81
2022-10-28T18:09:49.788Z,98778.53
2022-10-28T18:14:51.652Z,98779.72
2022-10-28T18:19:53.553Z,98773.41
2022-10-28T18:24:56.781Z,98770.53
2022-10-28T18:29:58.549Z,98771.91
2022-10-28T18:35:00.418Z,98769.22
2022-10-28T18:40:02.181Z,98765.53
2022-10-28T18:45:05.657Z,98771.13
2022-10-28T18:50:07.840Z,98767.25
2022-10-28T18:55:09.916Z,98762.38
2022-10-28T19:00:18.030Z,98766.34
2022-10-28T19:05:21.053Z,98763.47
2022-10-28T19:10:22.883Z,98764.00
2022-10-28T19:15:24.677Z,98764.19
2022-10-28T19:20:26.481Z,98758.34
2022-10-28T19:25:28.303Z,98760.13
2022-10-28T19:30:30.176Z,98753.28
2022-10-28T19:35:33.279Z,98755.91
2022-10-28T19:40:35.117Z,98760.31
2022-10-28T19:45:36.995Z,98766.19
2022-10-28T19:50:38.891Z,98776.28
2022-10-28T19:55:40.694Z,98776.28
2022-10-28T20:00:42.545Z,98779.06
2022-10-28T20:05:44.419Z,98774.03
2022-10-28T20:10:57.487Z,98780.06
2022-10-28T20:16:05.069Z,98784.13
2022-10-28T20:21:08.025Z,98789.00
2022-10-28T20:26:10.804Z,98793.78
2022-10-28T20:31:15.721Z,98787.28
2022-10-28T20:36:29.264Z,98788.81
2022-10-28T20:41:33.424Z,98790.97
2022-10-28T20:46:35.731Z,98806.38
2022-10-28T20:51:37.568Z,98803.94
2022-10-28T20:56:40.466Z,98812.78
2022-10-28T21:01:42.380Z,98808.81
2022-10-28T21:06:44.439Z,98811.88
2022-10-28T21:11:46.329Z,98825.59
2022-10-28T21:16:51.530Z,98822.16
2022-10-28T21:21:53.476Z,98811.06
2022-10-28T21:26:55.277Z,98824.69
2022-10-28T21:31:57.054Z,98824.59
2022-10-28T21:36:58.819Z,98818.28
2022-10-28T21:42:00.533Z,98826.66
2022-10-28T21:47:02.247Z,98827.19
2022-10-28T21:52:04.199Z,98826.53
2022-10-28T21:57:07.238Z,98828.50
2022-10-28T22:02:09.323Z,98826.91
2022-10-28T22:07:11.257Z,98826.91
2022-10-28T22:12:13.086Z,98831.31
2022-10-28T22:17:15.100Z,98836.88
2022-10-28T22:22:16.842Z,98832.00
2022-10-28T22:27:20.035Z,98835.78
2022-10-28T22:32:21.823Z,98837.94
2022-10-28T22:37:23.620Z,98837.31
2022-10-28T22:42:25.802Z,98832.25
2022-10-28T22:47:27.718Z,98841.44
2022-10-28T22:52:29.501Z,98841.59
2022-10-28T22:57:31.271Z,98838.00
2022-10-28T23:02:33.191Z,98852.69
2022-10-28T23:07:35.028Z,98849.44
2022-10-28T23:12:36.823Z,98847.81
2022-10-28T23:17:38.994Z,98839.34
2022-10-28T23:22:40.841Z,98849.78
2022-10-28T23:27:44.206Z,98857.63
2022-10-28T23:32:46.118Z,98860.53
2022-10-28T23:37:47.958Z,98864.41
2022-10-28T23:42:49.803Z,98869.94
2022-10-28T23:47:51.662Z,98867.78
2022-10-28T23:52:55.638Z,98855.94
2022-10-28T23:57:58.035Z,98861.81
